Observations for JERSEY AIRPORT, United Kingdom (EGJJ)

EGJJ 221220Z 10013KT CAVOK 24/18 Q1015 NOSIG
EGJJ 221150Z 12015KT CAVOK 24/18 Q1016 NOSIG
EGJJ 221120Z 11013KT CAVOK 24/19 Q1016 NOSIG
EGJJ 221050Z 10010KT CAVOK 22/18 Q1016 NOSIG
EGJJ 221020Z 10020KT CAVOK 21/18 Q1015 NOSIG
EGJJ 220950Z 12010KT CAVOK 20/17 Q1016 NOSIG
EGJJ 220920Z 11016KT CAVOK 20/17 Q1016 NOSIG
EGJJ 220850Z 12010KT CAVOK 21/17 Q1017 NOSIG
EGJJ 220820Z 11013KT 9999 FEW004 20/17 Q1017 NOSIG  
EGJJ 220750Z 12012KT 9999 FEW004 19/17 Q1018 NOSIG  
EGJJ 220720Z 11011KT 9999 FEW004 18/17 Q1018 NOSIG  
EGJJ 220650Z 11013KT 9999 FEW004 18/17 Q1018 NOSIG  
EGJJ 220620Z 11011KT 9999 FEW004 18/17 Q1018 NOSIG  
EGJJ 220550Z 11011KT CAVOK 17/17 Q1018 NOSIG
EGJJ 220520Z 11013KT 9999 FEW004 18/17 Q1018 NOSIG  
EGJJ 220450Z 11012KT 9999 FEW035 17/16 Q1018 TEMPO 5000 BR  
EGJJ 220420Z 10012KT 9999 FEW035 17/16 Q1018 TEMPO 6000 
EGJJ 220350Z 10012KT 9999 FEW035 17/16 Q1018 TEMPO 6000 
EGJJ 220320Z 11013KT 9999 FEW035 17/16 Q1018 TEMPO 6000 
EGJJ 220250Z 11014KT 9999 FEW035 18/16 Q1018 TEMPO 6000 
EGJJ 212120Z 07008KT 9000 NSC 17/16 Q1020 TEMPO 1200 BKN002 
EGJJ 212050Z 07005KT 7000 VCFG FEW000 16/16 Q1020 TEMPO 1200 BKN002 
EGJJ 212020Z 06006KT 6000 2000N VCFG FEW000 17/16 Q1020 TEMPO BKN002
EGJJ 211950Z 05008KT 3000 1200N R08/P1500 VCFG FEW000 SCT001 17/16 Q1020 TEMPO 1200 BKN001  
EGJJ 211920Z 04008KT 1100 VCFG SCT000 17/16 Q1020 TEMPO BKN001  
EGJJ 211850Z 04007KT 9999 5000N VCFG FEW000 18/17 Q1020 TEMPO 1500 BKN002   
EGJJ 211820Z 04008KT 9999 6000N VCFG FEW000 BKN033 18/17 Q1020 NOSIG
EGJJ 211750Z VRB03KT 9999 FEW002 BKN033 19/17 Q1020 NOSIG   
EGJJ 211720Z 30003KT 9999 FEW012 BKN031 20/17 Q1020 NOSIG   
EGJJ 211650Z 34002KT 9999 FEW012 BKN032 20/17 Q1021 NOSIG   
EGJJ 211620Z VRB01KT 9999 FEW008 BKN034 19/17 Q1021 NOSIG   
EGJJ 211550Z 27004KT 260V320 9999 FEW008 BKN029 19/17 Q1021 NOSIG   
EGJJ 211520Z 28004KT 220V310 9999 FEW008 BKN033 19/18 Q1021 NOSIG   
EGJJ 211450Z 26005KT 9999 FEW008 BKN034 19/17 Q1021 NOSIG   
EGJJ 211420Z 26005KT 210V290 9999 FEW005 BKN035 19/17 Q1021 NOSIG   
EGJJ 211350Z 25004KT 220V320 9999 FEW005 BKN035 19/17 Q1022 NOSIG   
EGJJ 211320Z VRB03KT 9999 SCT006 BKN034 19/17 Q1022 NOSIG   
EGJJ 211250Z 24004KT 200V290 9999 SCT004 BKN005 19/18 Q1022 NOSIG   
EGJJ 211220Z 28004KT 230V320 9999 SCT003 BKN004 18/18 Q1022 NOSIG   
EGJJ 211150Z 28006KT 240V320 9999 6000NW VCFG FEW000 BKN003 18/17 Q1022 TEMPO 5000 BR BKN002